Time;durP1;ratioP1;P1;durP2;ratioP2;P2;SDS_P1;SDS_P2;PMS_P1;PMS_P2;Temp;Humidity;BMP_temperature;BMP_pressure;BME280_temperature;BME280_humidity;BME280_pressure;Samples;Min_cycle;Max_cycle;Signal;HPM_P1;HPM_P2
2022/01/27 00:01:49;;;;;;;3.22;1.45;;;;;;;;;;4997016;28;20122;-70
2022/01/27 00:04:21;;;;;;;2.83;2.00;;;;;;;;;;5000694;28;20176;-69
2022/01/27 00:06:47;;;;;;;2.92;1.83;;;;;;;;;;5001287;28;20057;-73
2022/01/27 00:09:23;;;;;;;2.35;1.73;;;;;;;;;;5001083;28;20029;-71
2022/01/27 00:11:50;;;;;;;3.67;1.80;;;;;;;;;;5000651;28;20021;-69
2022/01/27 00:14:19;;;;;;;3.70;2.15;;;;;;;;;;5000372;28;20536;-70
2022/01/27 00:16:55;;;;;;;3.08;1.95;;;;;;;;;;4999617;28;20419;-73
2022/01/27 00:19:21;;;;;;;5.03;2.15;;;;;;;;;;5000977;28;20030;-70
2022/01/27 00:21:47;;;;;;;2.35;1.67;;;;;;;;;;4999121;28;20062;-70
2022/01/27 00:24:15;;;;;;;4.05;2.25;;;;;;;;;;5005640;28;20077;-70
2022/01/27 00:26:41;;;;;;;2.83;1.85;;;;;;;;;;5003300;28;20141;-70
2022/01/27 00:29:07;;;;;;;2.95;1.75;;;;;;;;;;5005284;28;20128;-70
2022/01/27 00:31:33;;;;;;;3.13;2.00;;;;;;;;;;5003298;28;20526;-69
2022/01/27 00:34:03;;;;;;;2.63;1.80;;;;;;;;;;5002960;28;20028;-70
2022/01/27 00:36:30;;;;;;;2.65;1.52;;;;;;;;;;5005114;28;20022;-70
2022/01/27 00:38:56;;;;;;;3.67;1.80;;;;;;;;;;5001519;28;20060;-70
2022/01/27 00:41:23;;;;;;;2.40;1.73;;;;;;;;;;5006955;28;20073;-69
2022/01/27 00:43:50;;;;;;;2.60;1.70;;;;;;;;;;5003034;28;20026;-70
2022/01/27 00:46:17;;;;;;;2.45;1.77;;;;;;;;;;5004332;28;20022;-69
2022/01/27 00:48:47;;;;;;;2.80;1.75;;;;;;;;;;5001893;28;20034;-70
2022/01/27 00:51:20;;;;;;;3.15;1.70;;;;;;;;;;5005864;28;20113;-70
2022/01/27 00:53:55;;;;;;;4.68;2.35;;;;;;;;;;5003571;28;20097;-70
2022/01/27 00:56:33;;;;;;;2.75;1.60;;;;;;;;;;5006304;28;20061;-70
2022/01/27 00:59:17;;;;;;;5.30;2.03;;;;;;;;;;5000799;28;20025;-70
2022/01/27 01:01:49;;;;;;;4.63;2.10;;;;;;;;;;5002303;28;20038;-69
2022/01/27 01:04:15;;;;;;;2.08;1.70;;;;;;;;;;5000447;28;20029;-69
2022/01/27 01:06:46;;;;;;;2.28;1.50;;;;;;;;;;5004848;28;20045;-70
2022/01/27 01:14:38;;;;;;;3.13;2.13;;;;;;;;;;5003866;28;20026;-69
2022/01/27 01:30:22;;;;;;;3.17;1.92;;;;;;;;;;4998561;28;20633;-69
2022/01/27 01:32:53;;;;;;;3.67;1.83;;;;;;;;;;5003328;28;20026;-70
2022/01/27 01:35:27;;;;;;;2.80;2.15;;;;;;;;;;4999233;28;20188;-70
2022/01/27 01:37:54;;;;;;;3.50;2.00;;;;;;;;;;4998923;28;20026;-70
2022/01/27 01:40:21;;;;;;;2.75;1.92;;;;;;;;;;4999753;28;20437;-71
2022/01/27 01:42:47;;;;;;;4.22;2.03;;;;;;;;;;4999618;28;20022;-71
2022/01/27 01:45:14;;;;;;;3.70;2.30;;;;;;;;;;4999076;28;20022;-71
2022/01/27 01:47:41;;;;;;;2.30;1.80;;;;;;;;;;5003040;28;20026;-71
2022/01/27 01:50:08;;;;;;;5.55;2.15;;;;;;;;;;5001096;28;20042;-72
2022/01/27 01:52:34;;;;;;;6.38;2.67;;;;;;;;;;4992513;28;20398;-70
2022/01/27 01:55:01;;;;;;;3.10;1.80;;;;;;;;;;4995925;28;20041;-71
2022/01/27 01:57:27;;;;;;;3.17;2.15;;;;;;;;;;4990520;28;20034;-71
2022/01/27 01:59:54;;;;;;;3.00;1.90;;;;;;;;;;4992140;28;20041;-70
2022/01/27 02:02:20;;;;;;;3.67;2.25;;;;;;;;;;4994821;28;20065;-70
2022/01/27 02:04:46;;;;;;;3.55;2.17;;;;;;;;;;4996457;28;20032;-70
2022/01/27 02:07:54;;;;;;;4.72;2.28;;;;;;;;;;4997319;28;20032;-70
2022/01/27 02:17:49;;;;;;;3.20;1.85;;;;;;;;;;5000614;28;20537;-71
2022/01/27 02:18:49;;;;;;;2.90;2.00;;;;;;;;;;4993987;28;20049;-71
2022/01/27 02:21:15;;;;;;;4.38;2.08;;;;;;;;;;4993082;28;20022;-71
2022/01/27 02:23:41;;;;;;;4.85;2.22;;;;;;;;;;4995951;28;20113;-71
2022/01/27 02:26:07;;;;;;;3.92;2.00;;;;;;;;;;4992084;28;20108;-70
2022/01/27 02:28:33;;;;;;;3.25;1.95;;;;;;;;;;4996266;28;20033;-71
2022/01/27 02:31:00;;;;;;;2.90;2.00;;;;;;;;;;4993906;28;20036;-71
2022/01/27 02:33:30;;;;;;;3.22;2.10;;;;;;;;;;4993742;28;20044;-70
2022/01/27 02:35:56;;;;;;;5.43;2.10;;;;;;;;;;4993238;28;20043;-71
2022/01/27 02:38:22;;;;;;;3.28;2.08;;;;;;;;;;4996394;28;20048;-71
2022/01/27 02:40:59;;;;;;;3.38;2.40;;;;;;;;;;4989841;28;20022;-70
2022/01/27 02:43:25;;;;;;;3.25;2.17;;;;;;;;;;4993109;28;20022;-70
2022/01/27 02:45:57;;;;;;;3.92;2.20;;;;;;;;;;4996264;28;20024;-71
2022/01/27 02:48:23;;;;;;;2.78;1.92;;;;;;;;;;4995063;28;20022;-73
2022/01/27 02:50:50;;;;;;;4.13;2.08;;;;;;;;;;4994501;28;20061;-70
2022/01/27 02:53:16;;;;;;;3.90;2.40;;;;;;;;;;4993169;28;20542;-71
2022/01/27 02:55:43;;;;;;;2.92;2.10;;;;;;;;;;4994597;28;20034;-71
2022/01/27 02:58:10;;;;;;;3.13;2.22;;;;;;;;;;4993934;28;20046;-70
2022/01/27 03:00:37;;;;;;;4.07;2.72;;;;;;;;;;4997828;28;20029;-71
2022/01/27 03:03:03;;;;;;;5.53;2.28;;;;;;;;;;4998241;28;20038;-72
2022/01/27 03:05:29;;;;;;;2.70;1.90;;;;;;;;;;4998125;28;20027;-71
2022/01/27 03:07:55;;;;;;;2.55;2.00;;;;;;;;;;4995543;28;20096;-71
2022/01/27 03:10:22;;;;;;;3.10;2.00;;;;;;;;;;4998651;28;20030;-70
2022/01/27 03:12:55;;;;;;;2.75;2.00;;;;;;;;;;4998015;28;20168;-71
2022/01/27 03:15:21;;;;;;;3.03;2.10;;;;;;;;;;4991903;28;20056;-71
2022/01/27 03:17:48;;;;;;;3.25;1.95;;;;;;;;;;4998017;28;20912;-71
2022/01/27 03:20:14;;;;;;;3.65;1.70;;;;;;;;;;4997640;28;20043;-70
2022/01/27 03:22:40;;;;;;;2.83;2.00;;;;;;;;;;4994650;28;20030;-71
2022/01/27 03:25:07;;;;;;;2.95;2.25;;;;;;;;;;4998796;28;20046;-71
2022/01/27 03:27:34;;;;;;;4.07;1.80;;;;;;;;;;4988420;28;20046;-71
2022/01/27 03:30:00;;;;;;;3.92;2.25;;;;;;;;;;4993152;28;20108;-72
2022/01/27 03:32:27;;;;;;;3.67;2.13;;;;;;;;;;4993513;28;20038;-71
2022/01/27 03:34:53;;;;;;;3.13;2.05;;;;;;;;;;4994456;28;20029;-70
2022/01/27 03:37:19;;;;;;;2.25;1.83;;;;;;;;;;4995554;28;20040;-71
2022/01/27 03:39:45;;;;;;;4.10;2.25;;;;;;;;;;4991623;28;20030;-71
2022/01/27 03:42:12;;;;;;;3.00;1.90;;;;;;;;;;4993608;28;20046;-70
2022/01/27 03:44:38;;;;;;;2.80;2.22;;;;;;;;;;4997084;28;20093;-70
2022/01/27 03:47:04;;;;;;;4.70;2.20;;;;;;;;;;4995930;28;20036;-71
2022/01/27 03:49:31;;;;;;;2.60;2.00;;;;;;;;;;4993722;28;20033;-74
2022/01/27 03:52:00;;;;;;;4.50;2.05;;;;;;;;;;4991913;28;20040;-71
2022/01/27 03:54:27;;;;;;;3.85;2.42;;;;;;;;;;4993429;28;20025;-71
2022/01/27 03:56:53;;;;;;;3.72;2.45;;;;;;;;;;4997718;28;20132;-70
2022/01/27 03:59:19;;;;;;;4.25;2.20;;;;;;;;;;4995643;28;20498;-71
2022/01/27 04:01:46;;;;;;;7.03;2.20;;;;;;;;;;4991256;28;20518;-71
2022/01/27 04:04:14;;;;;;;4.30;2.65;;;;;;;;;;4991567;28;20030;-71
2022/01/27 04:06:41;;;;;;;4.07;2.30;;;;;;;;;;5002051;28;20029;-70
2022/01/27 04:09:08;;;;;;;3.50;2.25;;;;;;;;;;5003318;28;20100;-75
2022/01/27 04:11:35;;;;;;;5.40;2.63;;;;;;;;;;5002947;28;20124;-71
2022/01/27 04:14:01;;;;;;;2.90;2.17;;;;;;;;;;5003318;28;20026;-71
2022/01/27 04:16:27;;;;;;;2.88;2.40;;;;;;;;;;5003182;28;20462;-70
2022/01/27 04:18:53;;;;;;;3.55;2.40;;;;;;;;;;5000938;28;20026;-70
2022/01/27 04:21:20;;;;;;;5.65;2.20;;;;;;;;;;5001945;28;20445;-70
2022/01/27 04:23:46;;;;;;;5.10;2.20;;;;;;;;;;5001583;28;20076;-71
2022/01/27 04:26:16;;;;;;;2.92;2.20;;;;;;;;;;5001986;28;20034;-71
2022/01/27 04:28:43;;;;;;;3.33;2.30;;;;;;;;;;5003237;28;20405;-71
2022/01/27 04:31:10;;;;;;;2.97;2.13;;;;;;;;;;5003005;28;20076;-71
2022/01/27 04:33:38;;;;;;;4.45;2.38;;;;;;;;;;5002875;28;20105;-71
2022/01/27 04:36:12;;;;;;;5.45;2.13;;;;;;;;;;5003035;28;20105;-71
2022/01/27 04:38:49;;;;;;;3.58;2.08;;;;;;;;;;5001325;28;20760;-71
2022/01/27 04:41:22;;;;;;;3.47;2.10;;;;;;;;;;5001691;28;20219;-71
2022/01/27 04:46:42;;;;;;;4.43;2.30;;;;;;;;;;5002608;28;20040;-71
2022/01/27 04:49:09;;;;;;;4.68;2.58;;;;;;;;;;5002628;28;20454;-71
2022/01/27 04:51:36;;;;;;;4.25;2.70;;;;;;;;;;5002559;28;20053;-71
2022/01/27 04:56:30;;;;;;;3.72;2.28;;;;;;;;;;5000360;28;20034;-71
2022/01/27 04:59:01;;;;;;;3.60;2.28;;;;;;;;;;5002163;28;20092;-70
2022/01/27 05:01:36;;;;;;;5.65;2.75;;;;;;;;;;5002524;28;20018;-70
2022/01/27 05:04:08;;;;;;;3.75;2.40;;;;;;;;;;5002427;28;20038;-70
2022/01/27 05:06:34;;;;;;;4.57;2.65;;;;;;;;;;5002126;28;20026;-71
2022/01/27 05:09:00;;;;;;;6.57;2.50;;;;;;;;;;5000392;28;20033;-71
2022/01/27 05:11:43;;;;;;;5.85;2.67;;;;;;;;;;5002378;28;20049;-71
2022/01/27 05:14:27;;;;;;;;;;;;;;;;;;5002739;28;20061;-71
2022/01/27 05:16:53;;;;;;;2.95;2.42;;;;;;;;;;4981559;28;19917;-75
2022/01/27 05:19:20;;;;;;;4.97;2.10;;;;;;;;;;4982171;28;20034;-70
2022/01/27 05:21:46;;;;;;;3.90;2.20;;;;;;;;;;4982644;28;20030;-70
2022/01/27 05:24:13;;;;;;;3.70;2.33;;;;;;;;;;4978220;28;20033;-71
2022/01/27 05:26:39;;;;;;;4.57;2.47;;;;;;;;;;4999163;28;20045;-71
2022/01/27 05:29:06;;;;;;;4.50;2.20;;;;;;;;;;5001450;28;20033;-71
2022/01/27 05:31:33;;;;;;;4.47;2.25;;;;;;;;;;5001617;28;20036;-70
2022/01/27 05:33:59;;;;;;;4.07;1.98;;;;;;;;;;5001926;28;20036;-71
2022/01/27 05:36:25;;;;;;;6.15;2.40;;;;;;;;;;4999734;28;20037;-70
2022/01/27 05:38:51;;;;;;;4.05;2.40;;;;;;;;;;5001522;28;20064;-71
2022/01/27 05:41:17;;;;;;;4.25;2.22;;;;;;;;;;5001523;28;20098;-71
2022/01/27 05:43:44;;;;;;;2.90;1.98;;;;;;;;;;5001379;28;20053;-71
2022/01/27 05:46:10;;;;;;;3.95;2.15;;;;;;;;;;5002608;28;20489;-70
2022/01/27 05:48:37;;;;;;;4.22;2.55;;;;;;;;;;5002027;28;20084;-70
2022/01/27 05:51:03;;;;;;;3.95;2.20;;;;;;;;;;5003456;28;20087;-69
2022/01/27 05:53:30;;;;;;;4.18;2.42;;;;;;;;;;5004427;28;20088;-70
2022/01/27 05:56:00;;;;;;;5.82;2.35;;;;;;;;;;5002504;28;20061;-70
2022/01/27 05:58:26;;;;;;;10.02;2.15;;;;;;;;;;5003596;28;20050;-70
2022/01/27 06:00:53;;;;;;;3.15;2.13;;;;;;;;;;5003431;28;20022;-70
2022/01/27 06:03:19;;;;;;;3.45;2.42;;;;;;;;;;4981639;28;20062;-71
2022/01/27 06:05:45;;;;;;;2.50;1.90;;;;;;;;;;4993870;28;20030;-71
2022/01/27 06:08:11;;;;;;;5.40;2.40;;;;;;;;;;5001121;28;20029;-70
2022/01/27 06:10:38;;;;;;;3.42;1.92;;;;;;;;;;4983973;28;20030;-70
2022/01/27 06:13:04;;;;;;;6.00;2.20;;;;;;;;;;5000783;28;20502;-70
2022/01/27 06:15:30;;;;;;;3.65;2.20;;;;;;;;;;5000475;28;20502;-70
2022/01/27 06:17:58;;;;;;;3.30;1.75;;;;;;;;;;4999277;28;20048;-70
2022/01/27 06:20:24;;;;;;;4.25;1.88;;;;;;;;;;5000657;28;20025;-70
2022/01/27 06:22:54;;;;;;;3.30;2.05;;;;;;;;;;5000995;28;20029;-70
2022/01/27 06:25:20;;;;;;;3.30;2.10;;;;;;;;;;5000491;28;20030;-70
2022/01/27 06:27:46;;;;;;;3.10;1.92;;;;;;;;;;5000228;28;20069;-70
2022/01/27 06:30:12;;;;;;;4.15;1.80;;;;;;;;;;4999118;28;20026;-70
2022/01/27 06:32:39;;;;;;;2.33;1.80;;;;;;;;;;5000558;28;20040;-71
2022/01/27 06:35:05;;;;;;;3.30;2.00;;;;;;;;;;5000539;28;20034;-70
2022/01/27 06:37:32;;;;;;;7.53;2.22;;;;;;;;;;4997948;28;20041;-70
2022/01/27 06:39:58;;;;;;;4.53;2.40;;;;;;;;;;4998296;28;20064;-74
2022/01/27 06:42:24;;;;;;;4.63;2.30;;;;;;;;;;5001067;28;20088;-70
2022/01/27 06:44:50;;;;;;;3.22;2.00;;;;;;;;;;5000803;28;20667;-71
2022/01/27 06:47:17;;;;;;;6.32;2.22;;;;;;;;;;4997431;28;20464;-70
2022/01/27 06:49:43;;;;;;;3.30;2.28;;;;;;;;;;4999751;28;20057;-70
2022/01/27 06:52:09;;;;;;;3.25;2.30;;;;;;;;;;5000289;28;20029;-70
2022/01/27 06:54:35;;;;;;;3.20;2.22;;;;;;;;;;5000048;28;20243;-70
2022/01/27 06:57:02;;;;;;;2.95;2.38;;;;;;;;;;4999122;28;20042;-70
2022/01/27 06:59:30;;;;;;;3.15;2.30;;;;;;;;;;5000431;28;20049;-70
2022/01/27 07:01:56;;;;;;;6.57;2.17;;;;;;;;;;4999672;28;20037;-70
2022/01/27 07:04:22;;;;;;;3.45;2.35;;;;;;;;;;5000734;28;20053;-71
2022/01/27 07:06:51;;;;;;;5.40;3.03;;;;;;;;;;4998332;28;20026;-71
2022/01/27 07:09:18;;;;;;;4.63;2.90;;;;;;;;;;5000513;28;20037;-71
2022/01/27 07:11:44;;;;;;;4.97;2.63;;;;;;;;;;4999530;28;20092;-70
2022/01/27 07:14:11;;;;;;;5.30;2.80;;;;;;;;;;4999734;28;20033;-70
2022/01/27 07:16:38;;;;;;;4.50;2.95;;;;;;;;;;4999779;28;20030;-70
2022/01/27 07:19:04;;;;;;;5.13;2.63;;;;;;;;;;5000175;28;20115;-70
2022/01/27 07:21:30;;;;;;;17.85;9.55;;;;;;;;;;4998420;28;20026;-70
2022/01/27 07:23:56;;;;;;;3.83;2.60;;;;;;;;;;4998682;28;20038;-70
2022/01/27 07:26:25;;;;;;;3.40;2.30;;;;;;;;;;4999185;28;20042;-70
2022/01/27 07:28:55;;;;;;;3.83;2.17;;;;;;;;;;4997553;28;20441;-72
2022/01/27 07:31:22;;;;;;;4.65;2.60;;;;;;;;;;4998353;28;20081;-70
2022/01/27 07:33:48;;;;;;;10.68;5.90;;;;;;;;;;4998635;28;20359;-71
2022/01/27 07:36:18;;;;;;;3.50;2.55;;;;;;;;;;4998711;28;20037;-73
2022/01/27 07:38:44;;;;;;;3.50;2.30;;;;;;;;;;4997896;28;20045;-71
2022/01/27 07:41:13;;;;;;;3.30;2.22;;;;;;;;;;4998383;28;20048;-71
2022/01/27 07:43:40;;;;;;;4.78;2.60;;;;;;;;;;5003513;28;20057;-72
2022/01/27 07:46:06;;;;;;;5.72;2.88;;;;;;;;;;5002548;28;20053;-70
2022/01/27 07:48:33;;;;;;;10.40;5.63;;;;;;;;;;5002875;28;20052;-70
2022/01/27 07:51:02;;;;;;;6.15;3.90;;;;;;;;;;5003635;28;20579;-76
2022/01/27 07:53:28;;;;;;;4.93;2.35;;;;;;;;;;5003522;28;20062;-70
2022/01/27 07:55:54;;;;;;;5.55;2.95;;;;;;;;;;5004575;28;20025;-71
2022/01/27 07:58:20;;;;;;;7.53;3.25;;;;;;;;;;5000536;28;20030;-69
2022/01/27 08:00:46;;;;;;;4.95;3.50;;;;;;;;;;4996844;28;20022;-84
2022/01/27 08:03:13;;;;;;;5.20;3.63;;;;;;;;;;4992131;28;20124;-71
2022/01/27 08:05:39;;;;;;;11.68;5.70;;;;;;;;;;4990938;28;20022;-70
2022/01/27 08:08:05;;;;;;;8.10;5.50;;;;;;;;;;5002200;28;20034;-69
2022/01/27 08:10:37;;;;;;;9.55;5.40;;;;;;;;;;5002160;28;20022;-73
2022/01/27 08:13:06;;;;;;;11.05;7.97;;;;;;;;;;5000854;28;20052;-70
2022/01/27 08:15:33;;;;;;;14.65;7.35;;;;;;;;;;5002237;28;20478;-71
2022/01/27 08:17:59;;;;;;;15.70;7.47;;;;;;;;;;5002791;28;20045;-72
2022/01/27 08:20:26;;;;;;;22.50;11.85;;;;;;;;;;5004258;28;20034;-70
2022/01/27 08:22:54;;;;;;;18.92;13.48;;;;;;;;;;5003801;28;20026;-70
2022/01/27 08:25:20;;;;;;;23.42;14.57;;;;;;;;;;5003098;28;20022;-69
2022/01/27 08:27:49;;;;;;;23.75;14.13;;;;;;;;;;5003627;28;20161;-69
2022/01/27 08:30:17;;;;;;;15.90;9.98;;;;;;;;;;5004501;28;20057;-69
2022/01/27 08:32:47;;;;;;;11.95;6.15;;;;;;;;;;5004158;28;20139;-69
2022/01/27 08:35:14;;;;;;;7.78;4.70;;;;;;;;;;5003416;28;20018;-69
2022/01/27 08:37:40;;;;;;;8.57;3.78;;;;;;;;;;5004509;28;20036;-69
2022/01/27 08:40:07;;;;;;;4.18;3.05;;;;;;;;;;5004902;28;20556;-69
2022/01/27 08:42:33;;;;;;;4.68;3.22;;;;;;;;;;5003428;28;20502;-68
2022/01/27 08:45:00;;;;;;;4.68;2.55;;;;;;;;;;5004306;28;20090;-69
2022/01/27 08:47:26;;;;;;;8.45;3.50;;;;;;;;;;5002691;28;20415;-68
2022/01/27 08:49:53;;;;;;;5.43;2.97;;;;;;;;;;4991850;28;20022;-70
2022/01/27 08:52:19;;;;;;;7.55;3.50;;;;;;;;;;5002795;28;20029;-69
2022/01/27 08:54:45;;;;;;;6.18;3.47;;;;;;;;;;5004456;28;20029;-69
2022/01/27 08:57:12;;;;;;;7.90;3.60;;;;;;;;;;5001957;28;20038;-71
2022/01/27 08:59:38;;;;;;;5.25;3.25;;;;;;;;;;5003688;28;20085;-69
2022/01/27 09:02:04;;;;;;;5.20;3.28;;;;;;;;;;5004052;28;20025;-69
2022/01/27 09:04:31;;;;;;;4.43;3.10;;;;;;;;;;5003352;28;20348;-75
2022/01/27 09:06:57;;;;;;;4.55;3.20;;;;;;;;;;5004058;28;20037;-70
2022/01/27 09:09:23;;;;;;;4.43;2.75;;;;;;;;;;5002803;28;20022;-71
2022/01/27 09:11:49;;;;;;;3.40;2.42;;;;;;;;;;5003987;28;20033;-68
2022/01/27 09:14:16;;;;;;;4.35;3.45;;;;;;;;;;5004116;28;20036;-68
2022/01/27 09:16:43;;;;;;;5.43;3.78;;;;;;;;;;5004500;28;20029;-68
2022/01/27 09:19:09;;;;;;;5.10;3.75;;;;;;;;;;5003904;28;20033;-74
2022/01/27 09:21:46;;;;;;;8.80;4.82;;;;;;;;;;5004048;28;20022;-68
2022/01/27 09:24:17;;;;;;;7.95;5.78;;;;;;;;;;5001987;28;20065;-68
2022/01/27 09:29:14;;;;;;;8.95;4.75;;;;;;;;;;5003881;28;20026;-68
2022/01/27 09:31:41;;;;;;;6.22;3.42;;;;;;;;;;5003983;28;20028;-68
2022/01/27 09:34:07;;;;;;;6.47;2.72;;;;;;;;;;5003831;28;20045;-68
2022/01/27 09:36:33;;;;;;;3.30;2.53;;;;;;;;;;5003688;28;20050;-68
2022/01/27 09:38:59;;;;;;;3.53;2.35;;;;;;;;;;5002101;28;20822;-68
2022/01/27 09:41:27;;;;;;;3.60;2.35;;;;;;;;;;5003645;28;20394;-68
2022/01/27 09:43:54;;;;;;;3.72;2.70;;;;;;;;;;5003495;28;20105;-68
2022/01/27 09:46:21;;;;;;;7.72;3.33;;;;;;;;;;5003653;28;20433;-68
2022/01/27 09:48:49;;;;;;;6.55;3.78;;;;;;;;;;5001953;28;20030;-68
2022/01/27 09:53:48;;;;;;;4.95;3.38;;;;;;;;;;5001901;28;20045;-71
2022/01/27 09:56:15;;;;;;;6.97;3.25;;;;;;;;;;5002700;28;20076;-69
2022/01/27 09:58:41;;;;;;;6.50;3.45;;;;;;;;;;5001085;28;20045;-73
2022/01/27 10:01:07;;;;;;;5.50;3.40;;;;;;;;;;5001265;28;20033;-71
2022/01/27 10:03:33;;;;;;;8.50;3.28;;;;;;;;;;5003036;28;20592;-69
2022/01/27 10:06:14;;;;;;;5.90;4.07;;;;;;;;;;5002997;28;20029;-69
2022/01/27 10:08:42;;;;;;;6.38;4.55;;;;;;;;;;5001726;28;20032;-69
2022/01/27 10:11:15;;;;;;;6.45;4.03;;;;;;;;;;5002936;28;20185;-69
2022/01/27 10:13:43;;;;;;;9.15;3.88;;;;;;;;;;5002280;28;20030;-69
2022/01/27 10:16:27;;;;;;;8.88;4.28;;;;;;;;;;5003629;28;20025;-68
2022/01/27 10:19:03;;;;;;;9.07;4.18;;;;;;;;;;4999228;28;20488;-71
2022/01/27 10:21:33;;;;;;;9.20;5.18;;;;;;;;;;5001404;28;20036;-68
2022/01/27 10:24:19;;;;;;;7.55;4.47;;;;;;;;;;5001038;28;20033;-70
2022/01/27 10:26:54;;;;;;;8.55;3.85;;;;;;;;;;5002788;28;20045;-74
2022/01/27 10:29:37;;;;;;;7.20;3.50;;;;;;;;;;5002193;28;20022;-68
2022/01/27 10:32:05;;;;;;;5.72;3.58;;;;;;;;;;5002771;28;20030;-70
2022/01/27 10:34:52;;;;;;;5.93;3.80;;;;;;;;;;5001882;28;20116;-69
2022/01/27 10:37:18;;;;;;;4.60;3.08;;;;;;;;;;5000605;28;20046;-69
2022/01/27 10:39:46;;;;;;;4.43;3.20;;;;;;;;;;5002368;28;20028;-69
2022/01/27 10:42:12;;;;;;;6.18;3.47;;;;;;;;;;5000656;28;20033;-69
2022/01/27 10:44:45;;;;;;;4.88;3.00;;;;;;;;;;5001929;28;20022;-68
2022/01/27 10:47:17;;;;;;;4.50;2.88;;;;;;;;;;5000371;28;20644;-69
2022/01/27 10:49:48;;;;;;;3.77;2.60;;;;;;;;;;5003673;28;20533;-72
2022/01/27 10:52:31;;;;;;;4.38;2.78;;;;;;;;;;5003382;28;20317;-70
2022/01/27 10:55:00;;;;;;;4.85;2.85;;;;;;;;;;4997495;28;20041;-66
2022/01/27 10:57:27;;;;;;;4.47;2.90;;;;;;;;;;4983885;28;20057;-68
2022/01/27 11:00:14;;;;;;;5.03;3.50;;;;;;;;;;4989878;28;20490;-69
2022/01/27 11:02:49;;;;;;;6.40;3.60;;;;;;;;;;5003497;28;20018;-68
2022/01/27 11:05:17;;;;;;;7.47;3.83;;;;;;;;;;5000501;28;20029;-70
2022/01/27 11:07:43;;;;;;;9.10;4.70;;;;;;;;;;5002144;28;20030;-72
2022/01/27 11:10:09;;;;;;;7.97;5.18;;;;;;;;;;5002919;28;20033;-70
2022/01/27 11:12:36;;;;;;;8.18;4.72;;;;;;;;;;5003550;28;20140;-69
2022/01/27 11:15:02;;;;;;;8.00;5.82;;;;;;;;;;4999914;28;20037;-74
2022/01/27 11:17:33;;;;;;;9.45;5.93;;;;;;;;;;5000997;28;20041;-69
2022/01/27 11:20:19;;;;;;;10.20;6.40;;;;;;;;;;5002054;28;20022;-69
2022/01/27 11:27:46;;;;;;;13.05;6.95;;;;;;;;;;5000743;28;20129;-69
2022/01/27 11:30:32;;;;;;;9.95;6.50;;;;;;;;;;5001830;28;20022;-68
2022/01/27 11:33:06;;;;;;;9.88;6.53;;;;;;;;;;4980740;28;20050;-69
2022/01/27 11:35:33;;;;;;;8.68;5.43;;;;;;;;;;5000305;28;20018;-69
2022/01/27 11:38:03;;;;;;;8.55;6.55;;;;;;;;;;5001458;28;20042;-69
2022/01/27 11:40:42;;;;;;;9.75;5.63;;;;;;;;;;5001028;28;20026;-68
2022/01/27 11:43:13;;;;;;;15.65;6.30;;;;;;;;;;5000520;28;20037;-68
2022/01/27 11:45:41;;;;;;;8.23;5.10;;;;;;;;;;4998998;28;20028;-70
2022/01/27 11:48:15;;;;;;;7.40;5.45;;;;;;;;;;5000524;28;20300;-71
2022/01/27 11:53:27;;;;;;;9.38;6.20;;;;;;;;;;5001146;28;20490;-70
2022/01/27 11:55:54;;;;;;;9.30;6.25;;;;;;;;;;4999719;28;20034;-70
2022/01/27 11:58:21;;;;;;;8.15;5.63;;;;;;;;;;4999647;28;20038;-69
2022/01/27 12:01:03;;;;;;;19.17;9.15;;;;;;;;;;4999931;28;20034;-70
2022/01/27 12:03:29;;;;;;;8.60;5.80;;;;;;;;;;5001013;28;20034;-70
2022/01/27 12:06:14;;;;;;;14.20;9.05;;;;;;;;;;5002239;28;20898;-70
2022/01/27 12:08:40;;;;;;;15.02;10.27;;;;;;;;;;5000299;28;20698;-69
2022/01/27 12:11:09;;;;;;;18.42;11.13;;;;;;;;;;5000801;28;20060;-70
2022/01/27 12:13:44;;;;;;;13.05;8.45;;;;;;;;;;4996349;28;20386;-70
2022/01/27 12:18:39;;;;;;;12.10;7.53;;;;;;;;;;4999563;28;20057;-69
2022/01/27 12:21:24;;;;;;;8.93;6.75;;;;;;;;;;5001173;28;20037;-74
2022/01/27 12:24:09;;;;;;;12.10;7.10;;;;;;;;;;4999862;28;20116;-69
2022/01/27 12:26:51;;;;;;;11.23;7.80;;;;;;;;;;5002966;28;20041;-70
2022/01/27 12:29:22;;;;;;;12.48;9.65;;;;;;;;;;5005112;28;20026;-69
2022/01/27 12:31:49;;;;;;;18.10;12.82;;;;;;;;;;5003576;28;20064;-70
2022/01/27 12:34:15;;;;;;;18.10;13.30;;;;;;;;;;5003349;28;20080;-69
2022/01/27 12:36:56;;;;;;;13.35;9.68;;;;;;;;;;5004000;28;20041;-74
2022/01/27 12:39:24;;;;;;;11.30;7.05;;;;;;;;;;5004292;28;20852;-70
2022/01/27 12:41:50;;;;;;;10.55;7.20;;;;;;;;;;5004106;28;20638;-71
2022/01/27 12:44:17;;;;;;;14.05;7.82;;;;;;;;;;5004437;28;20057;-70
2022/01/27 12:47:05;;;;;;;11.93;9.65;;;;;;;;;;5002297;28;20704;-70
2022/01/27 12:49:38;;;;;;;12.38;8.82;;;;;;;;;;5004256;28;20382;-70
2022/01/27 12:52:07;;;;;;;9.40;7.32;;;;;;;;;;5003893;28;20022;-73
2022/01/27 12:54:33;;;;;;;13.43;8.82;;;;;;;;;;5004421;28;20096;-69
2022/01/27 12:57:00;;;;;;;10.30;8.02;;;;;;;;;;5003738;28;20121;-70
2022/01/27 12:59:36;;;;;;;9.27;7.97;;;;;;;;;;5004900;28;20141;-70
2022/01/27 13:02:04;;;;;;;9.48;6.45;;;;;;;;;;5002050;28;20028;-72
2022/01/27 13:04:31;;;;;;;7.63;5.43;;;;;;;;;;5004656;28;20030;-70
2022/01/27 13:06:57;;;;;;;7.18;5.85;;;;;;;;;;5002974;28;20960;-75
2022/01/27 13:09:26;;;;;;;9.00;6.72;;;;;;;;;;5001664;28;20071;-73
2022/01/27 13:11:54;;;;;;;8.32;5.93;;;;;;;;;;5003326;28;20109;-68
2022/01/27 13:14:20;;;;;;;8.05;6.70;;;;;;;;;;5003463;28;20030;-70
2022/01/27 13:16:56;;;;;;;9.80;7.28;;;;;;;;;;5002926;28;20033;-70
2022/01/27 13:19:37;;;;;;;11.50;8.00;;;;;;;;;;5003278;28;20390;-70
2022/01/27 13:22:07;;;;;;;11.27;8.70;;;;;;;;;;5001915;28;20036;-70
2022/01/27 13:24:35;;;;;;;19.17;11.45;;;;;;;;;;5003421;28;20033;-70
2022/01/27 13:27:12;;;;;;;15.82;11.55;;;;;;;;;;5002320;28;20053;-69
2022/01/27 13:29:43;;;;;;;15.95;10.70;;;;;;;;;;5003066;28;20454;-70
2022/01/27 13:32:10;;;;;;;14.95;9.70;;;;;;;;;;5002685;28;20021;-70
2022/01/27 13:34:41;;;;;;;13.25;8.80;;;;;;;;;;5002684;28;20036;-70
2022/01/27 13:37:07;;;;;;;12.18;6.13;;;;;;;;;;5000930;28;20156;-69
2022/01/27 13:41:16;;;;;;;6.70;4.70;;;;;;;;;;5002801;28;20029;-73
2022/01/27 13:42:33;;;;;;;6.90;4.05;;;;;;;;;;4999361;28;20164;-70
2022/01/27 13:45:01;;;;;;;5.72;3.70;;;;;;;;;;5003144;28;20030;-70
2022/01/27 13:47:33;;;;;;;4.90;2.75;;;;;;;;;;5000707;28;20042;-70
2022/01/27 13:50:10;;;;;;;3.85;2.90;;;;;;;;;;5002527;28;20022;-70
2022/01/27 13:52:43;;;;;;;3.08;2.47;;;;;;;;;;4989821;28;20149;-69
2022/01/27 13:55:11;;;;;;;4.80;3.15;;;;;;;;;;4998153;28;20489;-69
2022/01/27 13:57:48;;;;;;;4.13;3.28;;;;;;;;;;5001980;28;20108;-69
2022/01/27 14:00:17;;;;;;;4.70;3.60;;;;;;;;;;5002879;28;20029;-69
2022/01/27 14:02:45;;;;;;;5.43;3.85;;;;;;;;;;5002376;28;20041;-70
2022/01/27 14:05:18;;;;;;;5.07;3.28;;;;;;;;;;5003060;28;20030;-69
2022/01/27 14:07:58;;;;;;;6.63;3.00;;;;;;;;;;4999842;28;20084;-69
2022/01/27 14:10:28;;;;;;;4.80;2.60;;;;;;;;;;5002410;28;20121;-69
2022/01/27 14:13:05;;;;;;;3.53;2.45;;;;;;;;;;5002516;28;20478;-69
2022/01/27 14:15:42;;;;;;;5.35;2.75;;;;;;;;;;5002188;28;20190;-72
2022/01/27 14:18:10;;;;;;;2.97;2.28;;;;;;;;;;5000551;28;20127;-68
2022/01/27 14:21:02;;;;;;;9.07;2.60;;;;;;;;;;5001362;28;20496;-69
2022/01/27 14:23:32;;;;;;;3.70;2.10;;;;;;;;;;4999038;28;20945;-69
2022/01/27 14:26:05;;;;;;;3.53;2.00;;;;;;;;;;5001524;28;20073;-70
2022/01/27 14:28:32;;;;;;;2.63;1.38;;;;;;;;;;5002570;28;20485;-69
2022/01/27 14:30:58;;;;;;;9.07;2.03;;;;;;;;;;5001862;28;20189;-69
2022/01/27 14:33:24;;;;;;;3.05;1.88;;;;;;;;;;5000468;28;20029;-71
2022/01/27 14:35:50;;;;;;;4.60;2.30;;;;;;;;;;5002527;28;20050;-69
2022/01/27 14:38:17;;;;;;;2.50;1.83;;;;;;;;;;5002147;28;20056;-69
2022/01/27 14:40:46;;;;;;;3.28;2.03;;;;;;;;;;5002393;28;20022;-69
2022/01/27 14:43:13;;;;;;;3.72;2.20;;;;;;;;;;5002469;28;20037;-69
2022/01/27 14:45:39;;;;;;;2.60;1.83;;;;;;;;;;5002155;28;20708;-69
2022/01/27 14:48:05;;;;;;;2.92;2.00;;;;;;;;;;4999623;28;20140;-69
2022/01/27 14:50:33;;;;;;;3.38;2.08;;;;;;;;;;5001327;28;20071;-69
2022/01/27 14:52:59;;;;;;;3.45;1.95;;;;;;;;;;5001935;28;20022;-70
2022/01/27 14:55:26;;;;;;;4.53;2.45;;;;;;;;;;5001704;28;20022;-69
2022/01/27 15:21:45;;;;;;;3.35;2.03;;;;;;;;;;4995409;28;20142;-96
2022/01/27 15:24:26;;;;;;;2.70;1.77;;;;;;;;;;4994792;28;20036;-96
2022/01/27 15:26:54;;;;;;;6.28;2.55;;;;;;;;;;4994079;28;20117;-95
2022/01/27 15:29:24;;;;;;;3.25;1.90;;;;;;;;;;4993975;28;20033;-96
2022/01/27 15:31:54;;;;;;;2.90;1.80;;;;;;;;;;4993881;28;20105;-96
2022/01/27 15:34:23;;;;;;;5.97;2.13;;;;;;;;;;4994064;28;20031;-95
2022/01/27 15:36:51;;;;;;;7.57;3.15;;;;;;;;;;4993851;28;20029;-96
2022/01/27 15:39:18;;;;;;;9.27;4.25;;;;;;;;;;4993837;28;20117;-96
2022/01/27 15:41:54;;;;;;;4.57;3.00;;;;;;;;;;4993654;28;20023;-96
2022/01/27 15:44:27;;;;;;;4.40;2.42;;;;;;;;;;4994474;28;20026;-96
2022/01/27 15:46:54;;;;;;;4.90;1.92;;;;;;;;;;4993719;28;20018;-95
2022/01/27 15:49:27;;;;;;;3.35;2.20;;;;;;;;;;4993663;28;20022;-95
2022/01/27 15:51:53;;;;;;;4.45;2.63;;;;;;;;;;4993813;28;20023;-96
2022/01/27 15:54:24;;;;;;;5.38;2.78;;;;;;;;;;4993862;28;20023;-96
2022/01/27 15:59:37;;;;;;;4.03;2.70;;;;;;;;;;4987487;28;20023;-96
2022/01/27 16:02:05;;;;;;;5.90;2.90;;;;;;;;;;4995900;28;20474;-95
2022/01/27 16:04:34;;;;;;;4.82;2.65;;;;;;;;;;4997451;28;20478;-96